sensor_id;sensor_type;location;lat;lon;timestamp;P1;durP1;ratioP1;P2;durP2;ratioP2
38609;SDS011;24367;51.640;9.566;2023-02-08T00:00:14;4.82;;;4.10;;
38609;SDS011;24367;51.640;9.566;2023-02-08T00:02:40;4.45;;;3.92;;
38609;SDS011;24367;51.640;9.566;2023-02-08T00:05:07;4.40;;;3.70;;
38609;SDS011;24367;51.640;9.566;2023-02-08T00:07:34;4.93;;;3.70;;
38609;SDS011;24367;51.640;9.566;2023-02-08T00:10:01;4.55;;;3.80;;
38609;SDS011;24367;51.640;9.566;2023-02-08T00:12:29;5.05;;;4.13;;
38609;SDS011;24367;51.640;9.566;2023-02-08T00:14:55;4.82;;;4.03;;
38609;SDS011;24367;51.640;9.566;2023-02-08T00:17:21;4.50;;;3.80;;
38609;SDS011;24367;51.640;9.566;2023-02-08T00:19:48;4.40;;;3.60;;
38609;SDS011;24367;51.640;9.566;2023-02-08T00:22:14;4.88;;;3.83;;
38609;SDS011;24367;51.640;9.566;2023-02-08T00:24:42;5.00;;;4.20;;
38609;SDS011;24367;51.640;9.566;2023-02-08T00:27:08;4.78;;;4.03;;
38609;SDS011;24367;51.640;9.566;2023-02-08T00:29:35;4.55;;;3.58;;
38609;SDS011;24367;51.640;9.566;2023-02-08T00:32:02;4.38;;;3.63;;
38609;SDS011;24367;51.640;9.566;2023-02-08T00:34:29;4.47;;;3.78;;
38609;SDS011;24367;51.640;9.566;2023-02-08T00:36:55;3.95;;;3.38;;
38609;SDS011;24367;51.640;9.566;2023-02-08T00:39:21;5.07;;;3.78;;
38609;SDS011;24367;51.640;9.566;2023-02-08T00:41:50;4.35;;;3.60;;
38609;SDS011;24367;51.640;9.566;2023-02-08T00:44:17;4.97;;;3.95;;
38609;SDS011;24367;51.640;9.566;2023-02-08T00:46:43;4.70;;;3.47;;
38609;SDS011;24367;51.640;9.566;2023-02-08T00:49:10;4.22;;;3.70;;
38609;SDS011;24367;51.640;9.566;2023-02-08T00:51:36;4.15;;;3.30;;
38609;SDS011;24367;51.640;9.566;2023-02-08T00:54:03;4.25;;;3.30;;
38609;SDS011;24367;51.640;9.566;2023-02-08T00:56:29;5.25;;;4.30;;
38609;SDS011;24367;51.640;9.566;2023-02-08T00:58:59;4.75;;;3.65;;
38609;SDS011;24367;51.640;9.566;2023-02-08T01:01:26;4.30;;;3.70;;
38609;SDS011;24367;51.640;9.566;2023-02-08T01:03:53;4.03;;;3.58;;
38609;SDS011;24367;51.640;9.566;2023-02-08T01:06:20;4.25;;;3.47;;
38609;SDS011;24367;51.640;9.566;2023-02-08T01:08:46;5.13;;;3.60;;
38609;SDS011;24367;51.640;9.566;2023-02-08T01:11:14;5.40;;;3.75;;
38609;SDS011;24367;51.640;9.566;2023-02-08T01:13:43;4.50;;;3.65;;
38609;SDS011;24367;51.640;9.566;2023-02-08T01:16:12;4.25;;;3.83;;
38609;SDS011;24367;51.640;9.566;2023-02-08T01:18:40;4.45;;;3.58;;
38609;SDS011;24367;51.640;9.566;2023-02-08T01:21:08;4.18;;;3.78;;
38609;SDS011;24367;51.640;9.566;2023-02-08T01:23:36;3.97;;;3.33;;
38609;SDS011;24367;51.640;9.566;2023-02-08T01:26:03;4.22;;;3.78;;
38609;SDS011;24367;51.640;9.566;2023-02-08T01:28:30;5.07;;;3.90;;
38609;SDS011;24367;51.640;9.566;2023-02-08T01:30:57;4.53;;;3.83;;
38609;SDS011;24367;51.640;9.566;2023-02-08T01:33:24;4.45;;;3.50;;
38609;SDS011;24367;51.640;9.566;2023-02-08T01:35:52;4.47;;;3.90;;
38609;SDS011;24367;51.640;9.566;2023-02-08T01:38:20;3.95;;;3.42;;
38609;SDS011;24367;51.640;9.566;2023-02-08T01:40:46;4.40;;;3.90;;
38609;SDS011;24367;51.640;9.566;2023-02-08T01:43:15;4.20;;;3.78;;
38609;SDS011;24367;51.640;9.566;2023-02-08T01:45:45;4.38;;;3.60;;
38609;SDS011;24367;51.640;9.566;2023-02-08T01:48:12;4.68;;;3.97;;
38609;SDS011;24367;51.640;9.566;2023-02-08T01:50:44;4.60;;;3.97;;
38609;SDS011;24367;51.640;9.566;2023-02-08T01:53:13;4.15;;;3.75;;
38609;SDS011;24367;51.640;9.566;2023-02-08T01:55:41;4.45;;;4.00;;
38609;SDS011;24367;51.640;9.566;2023-02-08T01:58:12;4.07;;;3.35;;
38609;SDS011;24367;51.640;9.566;2023-02-08T02:00:38;4.57;;;4.03;;
38609;SDS011;24367;51.640;9.566;2023-02-08T02:03:05;5.07;;;4.10;;
38609;SDS011;24367;51.640;9.566;2023-02-08T02:05:33;4.65;;;4.07;;
38609;SDS011;24367;51.640;9.566;2023-02-08T02:08:05;4.57;;;3.97;;
38609;SDS011;24367;51.640;9.566;2023-02-08T02:10:32;4.97;;;3.88;;
38609;SDS011;24367;51.640;9.566;2023-02-08T02:13:01;4.18;;;3.78;;
38609;SDS011;24367;51.640;9.566;2023-02-08T02:15:28;4.10;;;3.50;;
38609;SDS011;24367;51.640;9.566;2023-02-08T02:17:55;4.35;;;3.90;;
38609;SDS011;24367;51.640;9.566;2023-02-08T02:20:23;4.10;;;3.53;;
38609;SDS011;24367;51.640;9.566;2023-02-08T02:23:04;4.47;;;3.72;;
38609;SDS011;24367;51.640;9.566;2023-02-08T02:26:14;5.35;;;3.90;;
38609;SDS011;24367;51.640;9.566;2023-02-08T02:29:10;4.53;;;3.78;;
38609;SDS011;24367;51.640;9.566;2023-02-08T02:31:51;4.90;;;3.70;;
38609;SDS011;24367;51.640;9.566;2023-02-08T02:34:21;4.55;;;3.95;;
38609;SDS011;24367;51.640;9.566;2023-02-08T02:36:51;4.13;;;3.60;;
38609;SDS011;24367;51.640;9.566;2023-02-08T02:39:22;4.45;;;3.75;;
38609;SDS011;24367;51.640;9.566;2023-02-08T02:41:55;4.35;;;3.92;;
38609;SDS011;24367;51.640;9.566;2023-02-08T02:44:43;4.45;;;4.05;;
38609;SDS011;24367;51.640;9.566;2023-02-08T02:47:18;5.30;;;4.32;;
38609;SDS011;24367;51.640;9.566;2023-02-08T02:49:49;4.43;;;3.88;;
38609;SDS011;24367;51.640;9.566;2023-02-08T02:52:18;4.65;;;4.20;;
38609;SDS011;24367;51.640;9.566;2023-02-08T02:54:48;4.25;;;3.67;;
38609;SDS011;24367;51.640;9.566;2023-02-08T02:57:18;4.43;;;3.83;;
38609;SDS011;24367;51.640;9.566;2023-02-08T02:59:46;4.53;;;3.78;;
38609;SDS011;24367;51.640;9.566;2023-02-08T03:02:13;4.43;;;3.85;;
38609;SDS011;24367;51.640;9.566;2023-02-08T03:04:54;4.88;;;3.90;;
38609;SDS011;24367;51.640;9.566;2023-02-08T03:07:28;4.30;;;3.55;;
38609;SDS011;24367;51.640;9.566;2023-02-08T03:10:04;5.45;;;4.10;;
38609;SDS011;24367;51.640;9.566;2023-02-08T03:12:38;4.30;;;3.58;;
38609;SDS011;24367;51.640;9.566;2023-02-08T03:15:10;4.00;;;3.60;;
38609;SDS011;24367;51.640;9.566;2023-02-08T03:17:49;4.72;;;3.58;;
38609;SDS011;24367;51.640;9.566;2023-02-08T03:20:23;4.78;;;4.13;;
38609;SDS011;24367;51.640;9.566;2023-02-08T03:22:53;5.13;;;3.65;;
38609;SDS011;24367;51.640;9.566;2023-02-08T03:25:26;4.93;;;4.43;;
38609;SDS011;24367;51.640;9.566;2023-02-08T03:27:58;6.15;;;3.85;;
38609;SDS011;24367;51.640;9.566;2023-02-08T03:30:29;4.63;;;3.92;;
38609;SDS011;24367;51.640;9.566;2023-02-08T03:32:58;4.72;;;3.83;;
38609;SDS011;24367;51.640;9.566;2023-02-08T03:35:30;4.63;;;3.90;;
38609;SDS011;24367;51.640;9.566;2023-02-08T03:37:59;4.75;;;3.83;;
38609;SDS011;24367;51.640;9.566;2023-02-08T03:40:30;4.70;;;4.00;;
38609;SDS011;24367;51.640;9.566;2023-02-08T03:42:58;4.57;;;3.80;;
38609;SDS011;24367;51.640;9.566;2023-02-08T03:45:27;4.18;;;3.42;;
38609;SDS011;24367;51.640;9.566;2023-02-08T03:47:56;4.65;;;3.58;;
38609;SDS011;24367;51.640;9.566;2023-02-08T03:50:24;4.40;;;3.90;;
38609;SDS011;24367;51.640;9.566;2023-02-08T03:52:53;4.45;;;3.83;;
38609;SDS011;24367;51.640;9.566;2023-02-08T03:55:20;4.88;;;3.80;;
38609;SDS011;24367;51.640;9.566;2023-02-08T03:57:49;4.80;;;3.50;;
38609;SDS011;24367;51.640;9.566;2023-02-08T04:00:18;4.47;;;3.78;;
38609;SDS011;24367;51.640;9.566;2023-02-08T04:02:46;3.88;;;3.47;;
38609;SDS011;24367;51.640;9.566;2023-02-08T04:05:17;4.45;;;3.90;;
38609;SDS011;24367;51.640;9.566;2023-02-08T04:07:46;3.72;;;3.30;;
38609;SDS011;24367;51.640;9.566;2023-02-08T04:10:14;3.85;;;3.30;;
38609;SDS011;24367;51.640;9.566;2023-02-08T04:12:40;4.63;;;3.47;;
38609;SDS011;24367;51.640;9.566;2023-02-08T04:15:07;3.95;;;3.53;;
38609;SDS011;24367;51.640;9.566;2023-02-08T04:17:34;3.90;;;3.40;;
38609;SDS011;24367;51.640;9.566;2023-02-08T04:20:00;4.50;;;3.63;;
38609;SDS011;24367;51.640;9.566;2023-02-08T04:22:26;4.63;;;3.38;;
38609;SDS011;24367;51.640;9.566;2023-02-08T04:24:53;4.28;;;3.85;;
38609;SDS011;24367;51.640;9.566;2023-02-08T04:27:20;4.60;;;4.07;;
38609;SDS011;24367;51.640;9.566;2023-02-08T04:29:47;4.00;;;3.55;;
38609;SDS011;24367;51.640;9.566;2023-02-08T04:32:13;4.60;;;3.40;;
38609;SDS011;24367;51.640;9.566;2023-02-08T04:34:39;4.30;;;3.40;;
38609;SDS011;24367;51.640;9.566;2023-02-08T04:37:06;3.95;;;3.47;;
38609;SDS011;24367;51.640;9.566;2023-02-08T04:39:33;4.30;;;3.50;;
38609;SDS011;24367;51.640;9.566;2023-02-08T04:41:59;4.32;;;3.65;;
38609;SDS011;24367;51.640;9.566;2023-02-08T04:44:27;4.30;;;3.60;;
38609;SDS011;24367;51.640;9.566;2023-02-08T04:46:55;4.18;;;3.72;;
38609;SDS011;24367;51.640;9.566;2023-02-08T04:49:21;4.20;;;3.50;;
38609;SDS011;24367;51.640;9.566;2023-02-08T04:51:48;3.88;;;3.38;;
38609;SDS011;24367;51.640;9.566;2023-02-08T04:54:14;4.28;;;3.65;;
38609;SDS011;24367;51.640;9.566;2023-02-08T04:56:41;4.45;;;3.80;;
38609;SDS011;24367;51.640;9.566;2023-02-08T04:59:07;3.90;;;3.17;;
38609;SDS011;24367;51.640;9.566;2023-02-08T05:01:35;4.00;;;3.13;;
38609;SDS011;24367;51.640;9.566;2023-02-08T05:04:01;3.90;;;3.20;;
38609;SDS011;24367;51.640;9.566;2023-02-08T05:06:28;4.07;;;3.35;;
38609;SDS011;24367;51.640;9.566;2023-02-08T05:08:55;4.85;;;3.78;;
38609;SDS011;24367;51.640;9.566;2023-02-08T05:11:22;4.38;;;3.60;;
38609;SDS011;24367;51.640;9.566;2023-02-08T05:13:49;4.13;;;3.25;;
38609;SDS011;24367;51.640;9.566;2023-02-08T05:16:16;4.60;;;3.40;;
38609;SDS011;24367;51.640;9.566;2023-02-08T05:18:44;4.07;;;3.55;;
38609;SDS011;24367;51.640;9.566;2023-02-08T05:21:10;3.92;;;3.38;;
38609;SDS011;24367;51.640;9.566;2023-02-08T05:23:37;4.90;;;4.13;;
38609;SDS011;24367;51.640;9.566;2023-02-08T05:26:04;3.85;;;3.05;;
38609;SDS011;24367;51.640;9.566;2023-02-08T05:28:31;3.90;;;3.50;;
38609;SDS011;24367;51.640;9.566;2023-02-08T05:30:57;3.85;;;3.40;;
38609;SDS011;24367;51.640;9.566;2023-02-08T05:33:24;4.18;;;3.40;;
38609;SDS011;24367;51.640;9.566;2023-02-08T05:35:51;4.05;;;3.38;;
38609;SDS011;24367;51.640;9.566;2023-02-08T05:38:18;4.85;;;3.47;;
38609;SDS011;24367;51.640;9.566;2023-02-08T05:40:44;4.57;;;3.60;;
38609;SDS011;24367;51.640;9.566;2023-02-08T05:43:11;3.78;;;3.05;;
38609;SDS011;24367;51.640;9.566;2023-02-08T05:45:37;3.70;;;3.20;;
38609;SDS011;24367;51.640;9.566;2023-02-08T05:48:04;4.93;;;3.72;;
38609;SDS011;24367;51.640;9.566;2023-02-08T05:50:30;3.85;;;3.25;;
38609;SDS011;24367;51.640;9.566;2023-02-08T05:52:58;8.23;;;3.33;;
38609;SDS011;24367;51.640;9.566;2023-02-08T05:55:25;4.47;;;3.25;;
38609;SDS011;24367;51.640;9.566;2023-02-08T05:57:52;4.63;;;3.67;;
38609;SDS011;24367;51.640;9.566;2023-02-08T06:00:19;4.10;;;3.17;;
38609;SDS011;24367;51.640;9.566;2023-02-08T06:02:45;4.10;;;2.65;;
38609;SDS011;24367;51.640;9.566;2023-02-08T06:05:13;7.85;;;3.45;;
38609;SDS011;24367;51.640;9.566;2023-02-08T06:07:39;5.75;;;3.17;;
38609;SDS011;24367;51.640;9.566;2023-02-08T06:10:07;5.32;;;3.05;;
38609;SDS011;24367;51.640;9.566;2023-02-08T06:12:34;4.35;;;3.22;;
38609;SDS011;24367;51.640;9.566;2023-02-08T06:15:00;4.50;;;3.35;;
38609;SDS011;24367;51.640;9.566;2023-02-08T06:17:27;3.85;;;2.90;;
38609;SDS011;24367;51.640;9.566;2023-02-08T06:19:53;5.07;;;3.60;;
38609;SDS011;24367;51.640;9.566;2023-02-08T06:22:19;3.97;;;3.30;;
38609;SDS011;24367;51.640;9.566;2023-02-08T06:24:46;3.88;;;3.33;;
38609;SDS011;24367;51.640;9.566;2023-02-08T06:27:14;5.57;;;3.55;;
38609;SDS011;24367;51.640;9.566;2023-02-08T06:29:41;4.45;;;3.33;;
38609;SDS011;24367;51.640;9.566;2023-02-08T06:32:07;4.60;;;3.40;;
38609;SDS011;24367;51.640;9.566;2023-02-08T06:34:34;4.32;;;3.58;;
38609;SDS011;24367;51.640;9.566;2023-02-08T06:37:01;4.18;;;3.30;;
38609;SDS011;24367;51.640;9.566;2023-02-08T06:39:29;4.18;;;3.40;;
38609;SDS011;24367;51.640;9.566;2023-02-08T06:41:56;3.85;;;3.40;;
38609;SDS011;24367;51.640;9.566;2023-02-08T06:44:23;5.57;;;3.60;;
38609;SDS011;24367;51.640;9.566;2023-02-08T06:46:50;4.88;;;3.63;;
38609;SDS011;24367;51.640;9.566;2023-02-08T06:49:16;3.95;;;3.53;;
38609;SDS011;24367;51.640;9.566;2023-02-08T06:51:43;4.38;;;3.58;;
38609;SDS011;24367;51.640;9.566;2023-02-08T06:54:09;5.20;;;3.50;;
38609;SDS011;24367;51.640;9.566;2023-02-08T06:56:36;5.55;;;3.50;;
38609;SDS011;24367;51.640;9.566;2023-02-08T06:59:02;4.50;;;3.80;;
38609;SDS011;24367;51.640;9.566;2023-02-08T07:01:30;6.28;;;3.30;;
38609;SDS011;24367;51.640;9.566;2023-02-08T07:03:56;4.95;;;3.72;;
38609;SDS011;24367;51.640;9.566;2023-02-08T07:06:23;5.22;;;3.42;;
38609;SDS011;24367;51.640;9.566;2023-02-08T07:08:49;7.00;;;3.20;;
38609;SDS011;24367;51.640;9.566;2023-02-08T07:11:16;6.70;;;3.63;;
38609;SDS011;24367;51.640;9.566;2023-02-08T07:13:45;6.10;;;3.50;;
38609;SDS011;24367;51.640;9.566;2023-02-08T07:16:12;6.03;;;3.72;;
38609;SDS011;24367;51.640;9.566;2023-02-08T07:18:40;5.38;;;3.42;;
38609;SDS011;24367;51.640;9.566;2023-02-08T07:21:06;4.40;;;3.60;;
38609;SDS011;24367;51.640;9.566;2023-02-08T07:23:33;5.28;;;3.50;;
38609;SDS011;24367;51.640;9.566;2023-02-08T07:25:59;4.78;;;3.42;;
38609;SDS011;24367;51.640;9.566;2023-02-08T07:28:27;4.68;;;3.38;;
38609;SDS011;24367;51.640;9.566;2023-02-08T07:30:54;4.93;;;3.58;;
38609;SDS011;24367;51.640;9.566;2023-02-08T07:33:21;4.63;;;3.80;;
38609;SDS011;24367;51.640;9.566;2023-02-08T07:35:49;5.50;;;3.70;;
38609;SDS011;24367;51.640;9.566;2023-02-08T07:38:16;11.93;;;10.73;;
38609;SDS011;24367;51.640;9.566;2023-02-08T07:40:43;12.63;;;11.38;;
38609;SDS011;24367;51.640;9.566;2023-02-08T07:43:09;13.68;;;12.27;;
38609;SDS011;24367;51.640;9.566;2023-02-08T07:45:45;10.93;;;9.93;;
38609;SDS011;24367;51.640;9.566;2023-02-08T07:48:12;10.23;;;9.15;;
38609;SDS011;24367;51.640;9.566;2023-02-08T07:50:38;9.00;;;8.02;;
38609;SDS011;24367;51.640;9.566;2023-02-08T07:53:06;8.85;;;7.95;;
38609;SDS011;24367;51.640;9.566;2023-02-08T07:55:32;20.65;;;7.05;;
38609;SDS011;24367;51.640;9.566;2023-02-08T07:57:59;7.18;;;6.20;;
38609;SDS011;24367;51.640;9.566;2023-02-08T08:00:25;7.22;;;6.13;;
38609;SDS011;24367;51.640;9.566;2023-02-08T08:02:52;6.57;;;5.97;;
38609;SDS011;24367;51.640;9.566;2023-02-08T08:05:18;6.65;;;5.47;;
38609;SDS011;24367;51.640;9.566;2023-02-08T08:07:45;6.07;;;5.47;;
38609;SDS011;24367;51.640;9.566;2023-02-08T08:10:13;6.05;;;5.45;;
38609;SDS011;24367;51.640;9.566;2023-02-08T08:12:39;7.22;;;5.45;;
38609;SDS011;24367;51.640;9.566;2023-02-08T08:15:06;5.88;;;5.38;;
38609;SDS011;24367;51.640;9.566;2023-02-08T08:17:33;6.18;;;4.78;;
38609;SDS011;24367;51.640;9.566;2023-02-08T08:19:59;5.80;;;4.78;;
38609;SDS011;24367;51.640;9.566;2023-02-08T08:22:26;4.90;;;4.30;;
38609;SDS011;24367;51.640;9.566;2023-02-08T08:24:52;5.32;;;4.82;;
38609;SDS011;24367;51.640;9.566;2023-02-08T08:27:20;5.28;;;4.78;;
38609;SDS011;24367;51.640;9.566;2023-02-08T08:29:47;5.30;;;4.63;;
38609;SDS011;24367;51.640;9.566;2023-02-08T08:32:15;4.40;;;4.00;;
38609;SDS011;24367;51.640;9.566;2023-02-08T08:34:54;4.80;;;4.32;;
38609;SDS011;24367;51.640;9.566;2023-02-08T08:37:20;4.85;;;4.35;;
38609;SDS011;24367;51.640;9.566;2023-02-08T08:39:47;4.95;;;4.55;;
38609;SDS011;24367;51.640;9.566;2023-02-08T08:42:16;4.68;;;4.10;;
38609;SDS011;24367;51.640;9.566;2023-02-08T08:44:46;7.78;;;4.63;;
38609;SDS011;24367;51.640;9.566;2023-02-08T08:47:13;4.40;;;4.00;;
38609;SDS011;24367;51.640;9.566;2023-02-08T08:49:40;6.05;;;3.92;;
38609;SDS011;24367;51.640;9.566;2023-02-08T08:52:07;5.40;;;4.45;;
38609;SDS011;24367;51.640;9.566;2023-02-08T08:54:34;4.68;;;3.83;;
38609;SDS011;24367;51.640;9.566;2023-02-08T08:57:01;6.32;;;4.07;;
38609;SDS011;24367;51.640;9.566;2023-02-08T08:59:27;4.15;;;3.70;;
38609;SDS011;24367;51.640;9.566;2023-02-08T09:01:55;5.65;;;4.00;;
38609;SDS011;24367;51.640;9.566;2023-02-08T09:04:22;4.53;;;4.05;;
38609;SDS011;24367;51.640;9.566;2023-02-08T09:06:48;4.32;;;3.92;;
38609;SDS011;24367;51.640;9.566;2023-02-08T09:09:15;4.35;;;3.72;;
38609;SDS011;24367;51.640;9.566;2023-02-08T09:11:41;4.70;;;3.75;;
38609;SDS011;24367;51.640;9.566;2023-02-08T09:14:08;4.82;;;4.07;;
38609;SDS011;24367;51.640;9.566;2023-02-08T09:16:34;4.68;;;4.07;;
38609;SDS011;24367;51.640;9.566;2023-02-08T09:19:02;4.88;;;4.22;;
38609;SDS011;24367;51.640;9.566;2023-02-08T09:21:29;5.35;;;3.83;;
38609;SDS011;24367;51.640;9.566;2023-02-08T09:23:56;5.85;;;4.22;;
38609;SDS011;24367;51.640;9.566;2023-02-08T09:26:23;4.65;;;4.07;;
38609;SDS011;24367;51.640;9.566;2023-02-08T09:28:50;4.82;;;4.20;;
38609;SDS011;24367;51.640;9.566;2023-02-08T09:31:17;4.57;;;4.05;;
38609;SDS011;24367;51.640;9.566;2023-02-08T09:33:45;4.97;;;4.38;;
38609;SDS011;24367;51.640;9.566;2023-02-08T09:36:13;7.50;;;4.15;;
38609;SDS011;24367;51.640;9.566;2023-02-08T09:38:41;5.00;;;4.35;;
38609;SDS011;24367;51.640;9.566;2023-02-08T09:41:11;5.40;;;4.45;;
38609;SDS011;24367;51.640;9.566;2023-02-08T09:43:48;4.78;;;4.28;;
38609;SDS011;24367;51.640;9.566;2023-02-08T09:46:20;5.43;;;4.43;;
38609;SDS011;24367;51.640;9.566;2023-02-08T09:48:48;5.63;;;4.82;;
38609;SDS011;24367;51.640;9.566;2023-02-08T09:51:20;6.90;;;4.95;;
38609;SDS011;24367;51.640;9.566;2023-02-08T09:53:52;6.20;;;4.65;;
38609;SDS011;24367;51.640;9.566;2023-02-08T09:56:23;6.75;;;5.65;;
38609;SDS011;24367;51.640;9.566;2023-02-08T09:58:52;6.03;;;4.90;;
38609;SDS011;24367;51.640;9.566;2023-02-08T10:01:20;6.20;;;5.28;;
38609;SDS011;24367;51.640;9.566;2023-02-08T10:03:49;7.38;;;5.00;;
38609;SDS011;24367;51.640;9.566;2023-02-08T10:06:18;8.02;;;5.32;;
38609;SDS011;24367;51.640;9.566;2023-02-08T10:08:48;5.95;;;4.90;;
38609;SDS011;24367;51.640;9.566;2023-02-08T10:11:22;6.40;;;5.10;;
38609;SDS011;24367;51.640;9.566;2023-02-08T10:16:58;7.95;;;5.70;;
38609;SDS011;24367;51.640;9.566;2023-02-08T10:19:32;7.97;;;5.40;;
38609;SDS011;24367;51.640;9.566;2023-02-08T10:22:11;7.35;;;5.68;;
38609;SDS011;24367;51.640;9.566;2023-02-08T10:24:48;6.72;;;5.40;;
38609;SDS011;24367;51.640;9.566;2023-02-08T10:27:26;6.43;;;5.30;;
38609;SDS011;24367;51.640;9.566;2023-02-08T10:32:53;6.28;;;5.20;;
38609;SDS011;24367;51.640;9.566;2023-02-08T10:35:25;8.32;;;5.63;;
38609;SDS011;24367;51.640;9.566;2023-02-08T10:37:54;8.55;;;5.78;;
38609;SDS011;24367;51.640;9.566;2023-02-08T10:40:33;7.95;;;5.57;;
38609;SDS011;24367;51.640;9.566;2023-02-08T10:45:48;6.90;;;5.25;;
38609;SDS011;24367;51.640;9.566;2023-02-08T10:48:20;6.53;;;5.53;;
38609;SDS011;24367;51.640;9.566;2023-02-08T10:50:53;6.43;;;5.07;;
38609;SDS011;24367;51.640;9.566;2023-02-08T10:53:21;6.88;;;5.35;;
38609;SDS011;24367;51.640;9.566;2023-02-08T10:55:47;6.63;;;4.97;;
38609;SDS011;24367;51.640;9.566;2023-02-08T10:58:15;7.20;;;5.47;;
38609;SDS011;24367;51.640;9.566;2023-02-08T11:00:42;7.40;;;5.60;;
38609;SDS011;24367;51.640;9.566;2023-02-08T11:03:13;8.20;;;5.47;;
38609;SDS011;24367;51.640;9.566;2023-02-08T11:05:43;7.25;;;5.55;;
38609;SDS011;24367;51.640;9.566;2023-02-08T11:08:11;7.07;;;5.75;;
38609;SDS011;24367;51.640;9.566;2023-02-08T11:10:42;6.55;;;5.07;;
38609;SDS011;24367;51.640;9.566;2023-02-08T11:13:14;6.63;;;5.15;;
38609;SDS011;24367;51.640;9.566;2023-02-08T11:15:43;7.57;;;5.72;;
38609;SDS011;24367;51.640;9.566;2023-02-08T11:18:14;6.00;;;4.78;;
38609;SDS011;24367;51.640;9.566;2023-02-08T11:20:46;6.53;;;5.20;;
38609;SDS011;24367;51.640;9.566;2023-02-08T11:23:20;6.97;;;5.53;;
38609;SDS011;24367;51.640;9.566;2023-02-08T11:25:50;6.70;;;5.05;;
38609;SDS011;24367;51.640;9.566;2023-02-08T11:28:22;6.43;;;4.97;;
38609;SDS011;24367;51.640;9.566;2023-02-08T11:30:56;7.15;;;4.78;;
38609;SDS011;24367;51.640;9.566;2023-02-08T11:33:24;6.35;;;5.22;;
38609;SDS011;24367;51.640;9.566;2023-02-08T11:35:59;6.75;;;5.10;;
38609;SDS011;24367;51.640;9.566;2023-02-08T11:38:27;7.05;;;5.53;;
38609;SDS011;24367;51.640;9.566;2023-02-08T11:40:56;7.63;;;5.28;;
38609;SDS011;24367;51.640;9.566;2023-02-08T11:43:25;8.43;;;5.45;;
38609;SDS011;24367;51.640;9.566;2023-02-08T11:45:53;6.38;;;4.85;;
38609;SDS011;24367;51.640;9.566;2023-02-08T11:48:21;5.95;;;4.97;;
38609;SDS011;24367;51.640;9.566;2023-02-08T11:50:53;6.03;;;4.75;;
38609;SDS011;24367;51.640;9.566;2023-02-08T11:53:23;5.45;;;4.82;;
38609;SDS011;24367;51.640;9.566;2023-02-08T11:56:13;5.85;;;4.50;;
38609;SDS011;24367;51.640;9.566;2023-02-08T11:58:41;6.15;;;4.57;;
38609;SDS011;24367;51.640;9.566;2023-02-08T12:01:21;4.97;;;4.00;;
38609;SDS011;24367;51.640;9.566;2023-02-08T12:03:53;6.13;;;4.35;;
38609;SDS011;24367;51.640;9.566;2023-02-08T12:06:23;5.63;;;4.43;;
38609;SDS011;24367;51.640;9.566;2023-02-08T12:09:00;5.65;;;4.70;;
38609;SDS011;24367;51.640;9.566;2023-02-08T12:11:32;5.25;;;4.40;;
38609;SDS011;24367;51.640;9.566;2023-02-08T12:14:19;5.65;;;4.50;;
38609;SDS011;24367;51.640;9.566;2023-02-08T12:16:57;6.05;;;4.85;;
38609;SDS011;24367;51.640;9.566;2023-02-08T12:19:39;6.15;;;4.60;;
38609;SDS011;24367;51.640;9.566;2023-02-08T12:22:24;5.85;;;4.72;;
38609;SDS011;24367;51.640;9.566;2023-02-08T12:24:53;5.97;;;4.53;;
38609;SDS011;24367;51.640;9.566;2023-02-08T12:27:32;5.72;;;4.40;;
38609;SDS011;24367;51.640;9.566;2023-02-08T12:30:05;4.75;;;4.05;;
38609;SDS011;24367;51.640;9.566;2023-02-08T12:32:40;4.90;;;4.18;;
38609;SDS011;24367;51.640;9.566;2023-02-08T12:35:24;5.43;;;4.20;;
38609;SDS011;24367;51.640;9.566;2023-02-08T12:38:14;5.90;;;4.53;;
38609;SDS011;24367;51.640;9.566;2023-02-08T12:41:04;4.85;;;4.00;;
38609;SDS011;24367;51.640;9.566;2023-02-08T12:43:40;5.03;;;3.80;;
38609;SDS011;24367;51.640;9.566;2023-02-08T12:46:15;7.15;;;4.25;;
38609;SDS011;24367;51.640;9.566;2023-02-08T12:49:15;6.25;;;3.72;;
38609;SDS011;24367;51.640;9.566;2023-02-08T12:51:59;6.50;;;3.90;;
38609;SDS011;24367;51.640;9.566;2023-02-08T12:54:29;5.35;;;4.25;;
38609;SDS011;24367;51.640;9.566;2023-02-08T12:56:58;12.75;;;4.00;;
38609;SDS011;24367;51.640;9.566;2023-02-08T12:59:29;5.57;;;4.00;;
38609;SDS011;24367;51.640;9.566;2023-02-08T13:01:59;4.78;;;3.70;;
38609;SDS011;24367;51.640;9.566;2023-02-08T13:04:29;5.60;;;3.90;;
38609;SDS011;24367;51.640;9.566;2023-02-08T13:06:58;5.22;;;3.90;;
38609;SDS011;24367;51.640;9.566;2023-02-08T13:09:33;5.22;;;3.78;;
38609;SDS011;24367;51.640;9.566;2023-02-08T13:12:05;4.78;;;3.97;;
38609;SDS011;24367;51.640;9.566;2023-02-08T13:14:39;5.93;;;3.95;;
38609;SDS011;24367;51.640;9.566;2023-02-08T13:17:10;5.03;;;3.80;;
38609;SDS011;24367;51.640;9.566;2023-02-08T13:19:41;5.78;;;3.25;;
38609;SDS011;24367;51.640;9.566;2023-02-08T13:22:15;4.53;;;3.70;;
38609;SDS011;24367;51.640;9.566;2023-02-08T13:24:43;7.03;;;4.00;;
38609;SDS011;24367;51.640;9.566;2023-02-08T13:27:10;4.28;;;3.70;;
38609;SDS011;24367;51.640;9.566;2023-02-08T13:29:42;4.40;;;3.38;;
38609;SDS011;24367;51.640;9.566;2023-02-08T13:32:13;4.55;;;3.22;;
38609;SDS011;24367;51.640;9.566;2023-02-08T13:34:43;5.20;;;3.20;;
38609;SDS011;24367;51.640;9.566;2023-02-08T13:37:18;5.70;;;3.63;;
38609;SDS011;24367;51.640;9.566;2023-02-08T13:39:45;4.78;;;3.47;;
38609;SDS011;24367;51.640;9.566;2023-02-08T13:42:17;3.58;;;3.13;;
38609;SDS011;24367;51.640;9.566;2023-02-08T13:44:49;4.77;;;3.23;;
38609;SDS011;24367;51.640;9.566;2023-02-08T13:47:21;6.28;;;3.67;;
38609;SDS011;24367;51.640;9.566;2023-02-08T13:49:51;4.45;;;3.10;;
38609;SDS011;24367;51.640;9.566;2023-02-08T13:55:37;5.60;;;3.15;;
38609;SDS011;24367;51.640;9.566;2023-02-08T13:58:26;4.10;;;3.00;;
38609;SDS011;24367;51.640;9.566;2023-02-08T14:01:07;4.45;;;3.20;;
38609;SDS011;24367;51.640;9.566;2023-02-08T14:03:39;3.67;;;3.03;;
38609;SDS011;24367;51.640;9.566;2023-02-08T14:06:06;4.53;;;2.90;;
38609;SDS011;24367;51.640;9.566;2023-02-08T14:08:41;4.25;;;3.00;;
38609;SDS011;24367;51.640;9.566;2023-02-08T14:11:10;4.75;;;3.17;;
38609;SDS011;24367;51.640;9.566;2023-02-08T14:13:44;4.45;;;3.38;;
38609;SDS011;24367;51.640;9.566;2023-02-08T14:16:24;3.78;;;3.00;;
38609;SDS011;24367;51.640;9.566;2023-02-08T14:18:53;4.15;;;2.88;;
38609;SDS011;24367;51.640;9.566;2023-02-08T14:21:25;4.13;;;2.97;;
38609;SDS011;24367;51.640;9.566;2023-02-08T14:23:59;3.72;;;2.50;;
38609;SDS011;24367;51.640;9.566;2023-02-08T14:26:27;3.97;;;2.80;;
38609;SDS011;24367;51.640;9.566;2023-02-08T14:28:54;4.13;;;2.97;;
38609;SDS011;24367;51.640;9.566;2023-02-08T14:31:24;6.32;;;4.63;;
38609;SDS011;24367;51.640;9.566;2023-02-08T14:34:00;7.25;;;5.90;;
38609;SDS011;24367;51.640;9.566;2023-02-08T14:36:28;6.45;;;5.85;;
38609;SDS011;24367;51.640;9.566;2023-02-08T14:41:58;6.45;;;4.68;;
38609;SDS011;24367;51.640;9.566;2023-02-08T14:50:19;4.40;;;3.38;;
38609;SDS011;24367;51.640;9.566;2023-02-08T14:52:50;4.28;;;3.53;;
38609;SDS011;24367;51.640;9.566;2023-02-08T14:55:22;4.80;;;3.20;;
38609;SDS011;24367;51.640;9.566;2023-02-08T14:57:52;3.50;;;2.78;;
38609;SDS011;24367;51.640;9.566;2023-02-08T15:00:19;4.72;;;3.17;;
38609;SDS011;24367;51.640;9.566;2023-02-08T15:02:47;4.20;;;3.30;;
38609;SDS011;24367;51.640;9.566;2023-02-08T15:05:20;4.22;;;2.97;;
38609;SDS011;24367;51.640;9.566;2023-02-08T15:07:48;5.07;;;2.90;;
38609;SDS011;24367;51.640;9.566;2023-02-08T15:10:16;6.30;;;2.97;;
38609;SDS011;24367;51.640;9.566;2023-02-08T15:12:45;4.10;;;3.00;;
38609;SDS011;24367;51.640;9.566;2023-02-08T15:15:19;4.85;;;2.85;;
38609;SDS011;24367;51.640;9.566;2023-02-08T15:17:49;5.13;;;3.15;;
38609;SDS011;24367;51.640;9.566;2023-02-08T15:20:18;3.97;;;2.72;;
38609;SDS011;24367;51.640;9.566;2023-02-08T15:22:47;5.53;;;2.80;;